Time;durP1;ratioP1;P1;durP2;ratioP2;P2;SDS_P1;SDS_P2;PMS_P1;PMS_P2;Temp;Humidity;BMP_temperature;BMP_pressure;BME280_temperature;BME280_humidity;BME280_pressure;Samples;Min_cycle;Max_cycle;Signal;HPM_P1;HPM_P2
2024/03/15 05:02:51;;;;;;;9.02;5.97;;;9.30;99.90;;;;;;4883591;29;20226;-70
2024/03/15 05:05:18;;;;;;;5.82;5.22;;;9.30;99.90;;;;;;4879087;29;20700;-69
2024/03/15 05:07:47;;;;;;;8.27;6.18;;;9.40;99.90;;;;;;4888620;29;20549;-69
2024/03/15 05:10:15;;;;;;;5.78;5.20;;;9.40;99.90;;;;;;4890527;29;20214;-70
2024/03/15 05:12:42;;;;;;;8.82;6.22;;;9.40;99.90;;;;;;4893499;29;20305;-69
2024/03/15 05:15:10;;;;;;;5.93;4.20;;;9.40;99.90;;;;;;4877721;29;20234;-70
2024/03/15 05:17:37;;;;;;;5.15;4.45;;;9.40;99.90;;;;;;4888908;29;20572;-69
2024/03/15 05:20:04;;;;;;;5.55;4.40;;;9.40;99.90;;;;;;4878762;29;20252;-71
2024/03/15 05:22:31;;;;;;;5.63;5.15;;;9.40;99.90;;;;;;4889002;29;20325;-70
2024/03/15 05:25:00;;;;;;;8.45;5.68;;;9.40;99.90;;;;;;4878368;29;20214;-69
2024/03/15 05:27:27;;;;;;;6.40;5.75;;;9.30;99.90;;;;;;4875164;29;20313;-70
2024/03/15 05:29:54;;;;;;;5.00;4.50;;;9.30;99.90;;;;;;4893882;29;20203;-70
2024/03/15 05:32:21;;;;;;;8.50;6.15;;;9.20;99.90;;;;;;4894760;29;20230;-71
2024/03/15 05:34:48;;;;;;;7.15;5.97;;;9.20;99.90;;;;;;4909190;29;20274;-70
2024/03/15 05:37:15;;;;;;;9.63;6.75;;;9.10;99.90;;;;;;4879387;29;20235;-70
2024/03/15 05:39:42;;;;;;;6.97;5.40;;;9.10;99.90;;;;;;4908977;29;20241;-70
2024/03/15 05:42:09;;;;;;;6.38;5.72;;;9.10;99.90;;;;;;4877816;29;20238;-70
2024/03/15 05:44:35;;;;;;;8.13;5.82;;;9.00;99.90;;;;;;4892352;29;20211;-70
2024/03/15 05:47:02;;;;;;;7.90;5.72;;;9.00;99.90;;;;;;4879097;29;20224;-69
2024/03/15 05:49:29;;;;;;;5.93;5.07;;;9.00;99.90;;;;;;4879239;29;20214;-70
2024/03/15 05:51:56;;;;;;;8.15;6.22;;;8.90;99.90;;;;;;4906222;29;20244;-70
2024/03/15 05:54:23;;;;;;;8.93;7.25;;;8.90;99.90;;;;;;4875846;29;20217;-71
2024/03/15 05:56:50;;;;;;;6.03;4.68;;;8.90;99.90;;;;;;4909847;29;20215;-71
2024/03/15 05:59:16;;;;;;;7.15;5.78;;;8.90;99.90;;;;;;4878144;29;20239;-69
2024/03/15 06:01:43;;;;;;;7.05;6.35;;;8.90;99.90;;;;;;4908697;29;20245;-70
2024/03/15 06:04:10;;;;;;;10.32;7.35;;;9.00;99.90;;;;;;4878144;29;20219;-70
2024/03/15 06:06:40;;;;;;;13.23;9.07;;;9.10;99.90;;;;;;4909489;29;20211;-70
2024/03/15 06:09:09;;;;;;;9.70;7.53;;;9.10;99.90;;;;;;4877877;29;20210;-71
2024/03/15 06:11:36;;;;;;;13.07;7.20;;;9.20;99.90;;;;;;4889870;29;20265;-71
2024/03/15 06:14:03;;;;;;;7.95;6.75;;;9.30;99.90;;;;;;4877833;29;20240;-71
2024/03/15 06:16:31;;;;;;;11.48;6.50;;;9.40;99.90;;;;;;4878346;29;20219;-71
2024/03/15 06:18:58;;;;;;;10.10;7.10;;;9.50;99.90;;;;;;4905349;29;20253;-71
2024/03/15 06:21:26;;;;;;;10.25;6.90;;;9.60;99.90;;;;;;4878986;29;20241;-71
2024/03/15 06:23:53;;;;;;;8.25;7.28;;;9.70;99.90;;;;;;4913172;29;20226;-71
2024/03/15 06:26:22;;;;;;;14.48;7.30;;;9.80;99.90;;;;;;4876846;29;20219;-71
2024/03/15 06:28:49;;;;;;;12.18;9.00;;;10.00;99.90;;;;;;4893681;29;20206;-71
2024/03/15 06:31:16;;;;;;;9.98;7.75;;;10.20;99.90;;;;;;4906015;29;20237;-71
2024/03/15 06:33:43;;;;;;;11.57;7.60;;;10.40;99.90;;;;;;4894330;29;20235;-71
2024/03/15 06:36:16;;;;;;;16.03;10.20;;;10.60;99.90;;;;;;4876891;29;20215;-71
2024/03/15 06:38:53;;;;;;;14.43;11.82;;;10.60;99.90;;;;;;4891029;29;20526;-71
2024/03/15 06:41:29;;;;;;;10.27;7.13;;;10.80;99.90;;;;;;4905318;29;20235;-71
2024/03/15 06:44:09;;;;;;;9.03;7.33;;;10.80;99.90;;;;;;4889312;29;20471;-71
2024/03/15 06:47:04;;;;;;;23.07;13.60;;;10.90;99.90;;;;;;4903009;29;20475;-71
2024/03/15 06:49:43;;;;;;;17.00;9.97;;;10.90;99.90;;;;;;4881546;29;20463;-71
2024/03/15 06:54:56;;;;;;;21.07;11.93;;;11.10;99.90;;;;;;4903112;29;21171;-71
2024/03/15 06:57:23;;;;;;;19.53;11.30;;;11.10;99.90;;;;;;4883330;29;20471;-71
2024/03/15 06:59:50;;;;;;;12.43;9.43;;;11.30;99.90;;;;;;4890934;29;20503;-73
2024/03/15 07:02:17;;;;;;;13.53;8.37;;;11.40;99.90;;;;;;4893815;29;20495;-69
2024/03/15 07:04:44;;;;;;;7.53;6.60;;;11.40;99.90;;;;;;4890486;29;20487;-73
2024/03/15 07:07:13;;;;;;;10.30;6.73;;;11.40;99.90;;;;;;4908115;29;20471;-70
2024/03/15 07:09:40;;;;;;;8.57;6.73;;;11.50;99.90;;;;;;4893097;29;20495;-70
2024/03/15 07:12:08;;;;;;;19.10;12.27;;;11.40;99.90;;;;;;4881013;29;20487;-70
2024/03/15 07:14:34;;;;;;;16.23;7.90;;;11.50;99.90;;;;;;4889028;29;20468;-71
2024/03/15 07:17:01;;;;;;;9.40;6.47;;;11.60;99.90;;;;;;4881525;29;20482;-70
2024/03/15 07:19:29;;;;;;;7.10;6.30;;;11.60;99.90;;;;;;4882480;29;20518;-70
2024/03/15 07:21:56;;;;;;;7.33;4.83;;;11.70;99.90;;;;;;4898499;29;20502;-71
2024/03/15 07:24:22;;;;;;;8.60;5.93;;;11.70;99.90;;;;;;4897800;29;20472;-71
2024/03/15 07:26:49;;;;;;;8.73;8.03;;;11.70;99.90;;;;;;4896083;29;20463;-71
2024/03/15 07:29:16;;;;;;;5.93;5.37;;;11.80;99.90;;;;;;4899328;29;20478;-71
2024/03/15 07:31:43;;;;;;;9.83;7.67;;;11.80;99.90;;;;;;4911567;29;20479;-71
2024/03/15 07:34:10;;;;;;;10.87;8.20;;;11.90;99.90;;;;;;4894954;29;20475;-71
2024/03/15 07:36:38;;;;;;;28.50;15.37;;;12.00;99.90;;;;;;4896537;29;20475;-71
2024/03/15 07:39:06;;;;;;;27.80;15.37;;;12.10;99.90;;;;;;4881569;29;20494;-71
2024/03/15 07:41:34;;;;;;;38.80;17.40;;;12.20;99.90;;;;;;4881243;29;20491;-71
2024/03/15 07:44:01;;;;;;;33.13;17.50;;;12.30;99.90;;;;;;4881314;29;20507;-71
2024/03/15 07:46:28;;;;;;;14.33;9.57;;;12.30;99.90;;;;;;4881415;29;20503;-72
2024/03/15 07:48:54;;;;;;;16.57;10.90;;;12.40;99.90;;;;;;4897324;29;20486;-71
2024/03/15 07:51:23;;;;;;;7.50;6.80;;;12.50;99.90;;;;;;4912225;29;20479;-71
2024/03/15 07:53:50;;;;;;;7.17;6.53;;;12.60;99.90;;;;;;4891628;29;20534;-71
2024/03/15 07:56:17;;;;;;;9.10;7.10;;;12.80;99.90;;;;;;4883498;29;20471;-71
2024/03/15 07:58:43;;;;;;;10.37;6.97;;;12.80;99.90;;;;;;4902269;29;20474;-71
2024/03/15 08:01:10;;;;;;;10.60;6.70;;;12.80;99.90;;;;;;4880147;29;20872;-70
2024/03/15 08:03:37;;;;;;;6.53;6.00;;;12.90;99.90;;;;;;4883140;29;20497;-70
2024/03/15 08:06:06;;;;;;;5.20;4.70;;;13.00;99.90;;;;;;4893227;29;20487;-70
2024/03/15 08:08:33;;;;;;;7.00;5.20;;;13.10;99.90;;;;;;4892149;29;20495;-71
2024/03/15 08:11:00;;;;;;;6.90;5.00;;;13.20;99.90;;;;;;4877285;29;20491;-71
2024/03/15 08:13:27;;;;;;;5.57;5.03;;;13.30;99.90;;;;;;4892801;29;20487;-71
2024/03/15 08:15:59;;;;;;;6.03;5.40;;;13.40;99.90;;;;;;4888884;29;20467;-71
2024/03/15 08:18:26;;;;;;;4.57;4.17;;;13.40;99.90;;;;;;4880930;29;20456;-71
2024/03/15 08:20:53;;;;;;;3.90;3.60;;;13.50;99.90;;;;;;4911817;29;20498;-70
2024/03/15 08:23:23;;;;;;;5.17;4.67;;;13.50;99.90;;;;;;4878446;29;20476;-71
2024/03/15 08:25:50;;;;;;;5.50;4.20;;;13.60;99.90;;;;;;4909261;29;20649;-71
2024/03/15 08:28:16;;;;;;;6.43;5.83;;;13.60;99.90;;;;;;4878111;29;20510;-70
2024/03/15 08:30:44;;;;;;;5.43;4.90;;;13.70;99.90;;;;;;4911057;29;20483;-70
2024/03/15 08:33:11;;;;;;;6.10;5.50;;;13.80;99.90;;;;;;4879397;29;20531;-70
2024/03/15 08:35:38;;;;;;;6.00;4.60;;;13.90;99.90;;;;;;4911581;29;20460;-71
2024/03/15 08:38:05;;;;;;;8.23;4.70;;;14.00;99.90;;;;;;4881120;29;20463;-71
2024/03/15 08:40:32;;;;;;;5.80;5.30;;;14.10;99.90;;;;;;4889048;29;20499;-71
2024/03/15 08:43:00;;;;;;;4.87;4.37;;;14.20;99.90;;;;;;4896363;29;20474;-70
2024/03/15 08:45:29;;;;;;;5.93;4.60;;;14.30;99.90;;;;;;4879078;29;20845;-70
2024/03/15 08:47:57;;;;;;;6.77;4.40;;;14.40;99.90;;;;;;4915214;29;20468;-70
2024/03/15 08:50:26;;;;;;;4.57;4.20;;;14.40;99.90;;;;;;4892094;29;20546;-70
2024/03/15 08:52:53;;;;;;;7.70;4.73;;;14.50;99.90;;;;;;4909071;29;20507;-70
2024/03/15 08:55:21;;;;;;;4.97;4.20;;;14.50;99.90;;;;;;4877979;29;20475;-71
2024/03/15 08:57:47;;;;;;;5.57;4.50;;;14.60;99.90;;;;;;4892326;29;20467;-70
2024/03/15 09:00:14;;;;;;;5.40;4.90;;;14.70;99.90;;;;;;4873566;29;20510;-71
2024/03/15 09:02:41;;;;;;;4.07;3.80;;;14.90;99.90;;;;;;4894574;29;20468;-71
2024/03/15 09:05:09;;;;;;;4.87;4.40;;;15.10;99.90;;;;;;4893891;29;20478;-70
2024/03/15 09:07:36;;;;;;;4.70;4.30;;;15.20;99.90;;;;;;4877046;29;21091;-71
2024/03/15 09:10:07;;;;;;;5.40;4.40;;;15.30;99.90;;;;;;4876537;29;20548;-70
2024/03/15 09:12:34;;;;;;;4.97;4.17;;;15.40;99.90;;;;;;4894510;29;20492;-71
2024/03/15 09:15:01;;;;;;;5.77;4.93;;;15.60;99.90;;;;;;4885372;29;20998;-71
2024/03/15 09:17:29;;;;;;;4.93;4.00;;;15.70;99.90;;;;;;4879925;29;20481;-71
2024/03/15 09:19:57;;;;;;;4.93;4.60;;;15.80;99.90;;;;;;4910976;29;20492;-71
2024/03/15 09:22:25;;;;;;;5.40;4.93;;;15.80;99.90;;;;;;4881359;29;20483;-71
2024/03/15 09:24:52;;;;;;;5.43;4.00;;;15.80;99.90;;;;;;4908779;29;21069;-72
2024/03/15 09:27:21;;;;;;;5.20;4.80;;;15.90;99.90;;;;;;4895168;29;20475;-69
2024/03/15 09:29:49;;;;;;;5.87;3.80;;;15.90;99.90;;;;;;4911225;29;20546;-70
2024/03/15 09:32:17;;;;;;;5.33;4.50;;;15.90;99.90;;;;;;4879114;29;20547;-70
2024/03/15 09:34:46;;;;;;;3.93;3.83;;;15.90;99.90;;;;;;4894898;29;20511;-71
2024/03/15 09:37:14;;;;;;;5.97;4.40;;;16.00;99.90;;;;;;4916001;29;20463;-70
2024/03/15 09:39:42;;;;;;;5.13;4.70;;;15.90;99.90;;;;;;4895135;29;20487;-70
2024/03/15 09:42:10;;;;;;;4.77;4.17;;;15.70;99.90;;;;;;4878964;29;20819;-70
2024/03/15 09:44:37;;;;;;;5.67;5.23;;;15.70;99.90;;;;;;4892145;29;20480;-70
2024/03/15 09:47:04;;;;;;;5.47;4.37;;;15.70;99.90;;;;;;4891341;29;20478;-70
2024/03/15 09:49:32;;;;;;;4.87;4.53;;;15.60;99.90;;;;;;4876947;29;20567;-71
2024/03/15 09:51:59;;;;;;;9.40;5.17;;;15.50;99.90;;;;;;4909179;29;21175;-70
2024/03/15 09:54:27;;;;;;;7.23;5.97;;;15.50;99.90;;;;;;4875513;29;20475;-70
2024/03/15 09:56:54;;;;;;;5.73;4.10;;;15.40;99.90;;;;;;4894194;29;20479;-70
2024/03/15 09:59:21;;;;;;;4.60;4.20;;;15.50;99.90;;;;;;4878541;29;20875;-69
2024/03/15 10:01:49;;;;;;;4.63;4.30;;;15.60;99.90;;;;;;4894629;29;21021;-70
2024/03/15 10:04:15;;;;;;;5.40;4.80;;;15.70;99.90;;;;;;4877764;29;20528;-70
2024/03/15 10:06:42;;;;;;;5.87;4.60;;;15.60;99.90;;;;;;4910550;29;20483;-70
2024/03/15 10:09:12;;;;;;;4.93;4.40;;;15.60;99.90;;;;;;4878308;29;20537;-70
2024/03/15 10:11:39;;;;;;;5.47;4.40;;;15.50;99.90;;;;;;4908958;29;20498;-70
2024/03/15 10:14:05;;;;;;;4.17;3.80;;;15.40;99.90;;;;;;4876760;29;20475;-70
2024/03/15 10:16:37;;;;;;;6.10;4.60;;;15.20;99.90;;;;;;4891793;29;20480;-70
2024/03/15 10:19:04;;;;;;;7.17;4.40;;;15.10;99.90;;;;;;4874997;29;20817;-70
2024/03/15 10:21:31;;;;;;;6.73;4.80;;;14.90;99.90;;;;;;4878214;29;20500;-70
2024/03/15 10:23:58;;;;;;;9.43;4.43;;;14.80;99.90;;;;;;4876841;29;20467;-70
2024/03/15 10:26:25;;;;;;;6.60;6.00;;;14.70;99.90;;;;;;4876533;29;20863;-70
2024/03/15 10:28:55;;;;;;;5.53;5.10;;;14.70;99.90;;;;;;4879462;29;20980;-69
2024/03/15 10:31:28;;;;;;;6.00;4.30;;;14.60;99.90;;;;;;4892313;29;21268;-69
2024/03/15 10:33:55;;;;;;;5.70;5.10;;;14.60;99.90;;;;;;4907330;29;20468;-70
2024/03/15 10:36:28;;;;;;;5.40;5.00;;;14.60;99.90;;;;;;4880231;29;20463;-70
2024/03/15 10:38:55;;;;;;;7.83;4.97;;;14.50;99.90;;;;;;4894432;29;20467;-70
2024/03/15 10:41:35;;;;;;;;;;;;;;;;;;;;;
2024/03/15 10:44:11;;;;;;;4.70;4.27;;;14.40;99.90;;;;;;4878119;29;20482;-70
2024/03/15 10:46:38;;;;;;;6.23;5.50;;;14.40;99.90;;;;;;4893348;29;20523;-69
2024/03/15 10:49:06;;;;;;;5.70;5.23;;;14.30;99.90;;;;;;4909284;29;20464;-70
2024/03/15 10:51:36;;;;;;;5.20;4.60;;;14.10;99.90;;;;;;4876770;29;20494;-70
2024/03/15 10:54:04;;;;;;;5.57;4.20;;;13.90;99.90;;;;;;4891409;29;20482;-67
2024/03/15 10:56:34;;;;;;;10.43;5.63;;;13.80;99.90;;;;;;4878419;29;20467;-67
2024/03/15 10:59:02;;;;;;;5.63;4.50;;;13.70;99.90;;;;;;4877309;29;20483;-68
2024/03/15 11:01:34;;;;;;;6.87;4.70;;;13.70;99.90;;;;;;4876284;29;20503;-68
2024/03/15 11:04:03;;;;;;;6.13;5.53;;;13.60;99.90;;;;;;4907036;29;20476;-70
2024/03/15 11:06:40;;;;;;;12.17;8.50;;;13.60;99.90;;;;;;4893393;29;20842;-69
2024/03/15 11:09:15;;;;;;;8.13;5.97;;;13.60;99.90;;;;;;4888371;29;20503;-69
2024/03/15 11:11:42;;;;;;;11.43;7.27;;;13.60;99.90;;;;;;4893265;29;20535;-70
2024/03/15 11:14:13;;;;;;;12.17;6.80;;;13.60;99.90;;;;;;4876323;29;20467;-69
2024/03/15 11:16:51;;;;;;;10.90;7.37;;;13.50;99.90;;;;;;4877129;29;20464;-69
2024/03/15 11:19:27;;;;;;;7.70;5.70;;;13.50;99.90;;;;;;4909167;29;20482;-69
2024/03/15 11:22:04;;;;;;;7.37;6.67;;;13.40;99.90;;;;;;4892570;29;20495;-70
2024/03/15 11:24:41;;;;;;;15.30;7.83;;;13.30;99.90;;;;;;4906239;29;20463;-69
2024/03/15 11:27:21;;;;;;;9.40;6.63;;;13.30;99.90;;;;;;4889804;29;20542;-69
2024/03/15 11:29:55;;;;;;;10.70;7.13;;;13.30;99.90;;;;;;4879353;29;20475;-71
2024/03/15 11:32:22;;;;;;;6.97;6.27;;;13.30;99.90;;;;;;4879844;29;20567;-69
2024/03/15 11:34:53;;;;;;;10.10;7.57;;;13.40;99.90;;;;;;4878374;29;20503;-67
2024/03/15 11:37:24;;;;;;;7.83;7.00;;;13.50;99.90;;;;;;4878276;29;20475;-70
2024/03/15 11:40:02;;;;;;;8.30;7.33;;;13.50;99.90;;;;;;4877623;29;20486;-70
2024/03/15 11:42:36;;;;;;;11.70;7.53;;;13.60;99.90;;;;;;4877827;29;21041;-70
2024/03/15 11:45:09;;;;;;;9.30;6.90;;;13.60;99.90;;;;;;4887251;29;20476;-70
2024/03/15 11:47:40;;;;;;;9.80;6.20;;;13.70;99.90;;;;;;4891674;29;20471;-70
2024/03/15 11:50:12;;;;;;;11.00;8.07;;;13.80;99.90;;;;;;4877727;29;20487;-69
2024/03/15 11:52:46;;;;;;;17.80;8.00;;;13.90;99.90;;;;;;4893187;29;20471;-69
2024/03/15 11:55:21;;;;;;;10.97;7.73;;;13.90;99.90;;;;;;4877880;29;20489;-70
2024/03/15 11:57:48;;;;;;;7.03;6.33;;;14.00;99.90;;;;;;4908983;29;20475;-70
2024/03/15 12:00:21;;;;;;;8.00;6.33;;;14.10;99.90;;;;;;4880454;29;20486;-71
2024/03/15 12:03:07;;;;;;;10.30;8.27;;;14.20;99.90;;;;;;4910737;29;20574;-70
2024/03/15 12:08:26;;;;;;;7.70;7.00;;;14.30;99.90;;;;;;4896568;29;20956;-70
2024/03/15 12:10:56;;;;;;;9.40;6.63;;;14.30;99.90;;;;;;4881987;29;20590;-70
2024/03/15 12:19:32;;;;;;;8.37;7.57;;;14.50;99.90;;;;;;4904638;29;20523;-70
2024/03/15 12:22:22;;;;;;;8.33;7.63;;;14.50;99.90;;;;;;4895264;29;20494;-70
2024/03/15 12:28:08;;;;;;;11.20;6.93;;;14.60;99.90;;;;;;4877099;29;20472;-70
2024/03/15 12:30:45;;;;;;;8.50;6.77;;;14.60;99.90;;;;;;4893768;29;20531;-70
2024/03/15 12:33:25;;;;;;;7.57;6.50;;;14.60;99.90;;;;;;4881000;29;20478;-71
2024/03/15 12:36:10;;;;;;;7.43;6.67;;;14.40;99.90;;;;;;4903189;29;20946;-71
2024/03/15 12:38:39;;;;;;;6.97;6.37;;;14.30;99.90;;;;;;4879249;29;20472;-70
2024/03/15 12:44:25;;;;;;;8.70;7.67;;;14.30;99.90;;;;;;4888232;29;20546;-70
2024/03/15 12:47:37;;;;;;;15.17;8.30;;;14.60;99.90;;;;;;4893349;29;20484;-70
2024/03/15 12:50:15;;;;;;;7.30;6.60;;;14.80;99.90;;;;;;4880965;29;20471;-69
2024/03/15 12:52:42;;;;;;;8.70;7.17;;;14.90;99.90;;;;;;4882833;29;20471;-70
2024/03/15 12:55:14;;;;;;;7.27;6.47;;;14.90;99.90;;;;;;4895215;29;20508;-70
2024/03/15 12:57:45;;;;;;;7.77;6.87;;;15.00;99.90;;;;;;4896655;29;20752;-70
2024/03/15 13:00:13;;;;;;;7.30;6.60;;;15.00;99.90;;;;;;4875871;29;20476;-70
2024/03/15 13:02:46;;;;;;;8.37;7.00;;;14.90;99.90;;;;;;4893702;29;21006;-69
2024/03/15 13:05:17;;;;;;;7.47;6.57;;;14.80;99.90;;;;;;4909031;29;20512;-69
2024/03/15 13:07:44;;;;;;;8.70;6.97;;;14.80;99.90;;;;;;4881205;29;20468;-70
2024/03/15 13:10:11;;;;;;;8.93;7.47;;;14.90;99.90;;;;;;4910841;29;20468;-69
2024/03/15 13:12:41;;;;;;;7.20;6.70;;;14.90;99.90;;;;;;4895975;29;20482;-70
2024/03/15 13:15:09;;;;;;;9.60;7.57;;;14.90;99.90;;;;;;4910175;29;20467;-70
2024/03/15 13:17:43;;;;;;;8.33;7.33;;;14.80;99.90;;;;;;4895219;29;20479;-70
2024/03/15 13:20:18;;;;;;;9.17;6.40;;;14.60;99.90;;;;;;4910561;29;20535;-69
2024/03/15 13:22:52;;;;;;;6.97;6.27;;;14.50;99.90;;;;;;4910879;29;20523;-69
2024/03/15 13:25:20;;;;;;;8.33;7.63;;;14.40;99.90;;;;;;4894431;29;20464;-69
2024/03/15 13:27:53;;;;;;;8.23;6.67;;;14.30;99.90;;;;;;4902238;29;20476;-69
2024/03/15 13:30:23;;;;;;;8.00;6.77;;;14.20;99.90;;;;;;4889971;29;20531;-69
2024/03/15 13:32:54;;;;;;;6.73;6.13;;;14.10;99.90;;;;;;4879045;29;20519;-69
2024/03/15 13:35:25;;;;;;;6.83;6.20;;;14.10;99.90;;;;;;4894437;29;20499;-69
2024/03/15 13:37:56;;;;;;;7.60;6.80;;;14.10;99.90;;;;;;4895733;29;20572;-69
2024/03/15 13:40:23;;;;;;;8.50;7.70;;;14.00;99.90;;;;;;4910474;29;20455;-69
2024/03/15 13:42:52;;;;;;;6.47;5.80;;;14.00;99.90;;;;;;4899309;29;21081;-69
2024/03/15 13:45:25;;;;;;;6.70;6.20;;;14.00;99.90;;;;;;4892204;29;20527;-70
2024/03/15 13:47:55;;;;;;;6.50;5.90;;;14.00;99.90;;;;;;4879490;29;20514;-69
2024/03/15 13:50:24;;;;;;;7.93;6.97;;;14.00;99.90;;;;;;4909071;29;20468;-70
2024/03/15 13:52:56;;;;;;;6.87;5.87;;;14.10;99.90;;;;;;4895065;29;20467;-70
2024/03/15 13:55:26;;;;;;;7.37;6.67;;;14.20;99.90;;;;;;4900942;29;20464;-69
2024/03/15 13:57:53;;;;;;;8.10;7.33;;;14.10;99.90;;;;;;4902429;29;20482;-70
2024/03/15 14:00:31;;;;;;;6.07;5.50;;;14.10;99.90;;;;;;4906650;29;20512;-70
2024/03/15 14:03:01;;;;;;;6.33;5.63;;;14.10;99.90;;;;;;4899561;29;20499;-70
2024/03/15 14:05:35;;;;;;;6.83;6.13;;;14.10;99.90;;;;;;4915266;29;20471;-70
2024/03/15 14:08:05;;;;;;;6.60;6.00;;;14.20;99.90;;;;;;4890710;29;20858;-69
2024/03/15 14:10:32;;;;;;;7.13;6.37;;;14.30;99.90;;;;;;4910293;29;20491;-69
2024/03/15 14:13:06;;;;;;;6.60;6.07;;;14.40;99.90;;;;;;4894355;29;20558;-70
2024/03/15 14:15:39;;;;;;;5.30;4.83;;;14.40;99.90;;;;;;4892259;29;20498;-70
2024/03/15 14:18:09;;;;;;;6.60;6.00;;;14.50;99.90;;;;;;4874056;29;20471;-70
2024/03/15 14:20:36;;;;;;;8.20;6.70;;;14.60;99.90;;;;;;4909484;29;20555;-70
2024/03/15 14:23:15;;;;;;;6.87;6.27;;;14.70;99.90;;;;;;4893406;29;20491;-70
2024/03/15 14:25:44;;;;;;;6.60;6.00;;;14.80;99.90;;;;;;4879153;29;20520;-70
2024/03/15 14:28:13;;;;;;;9.03;7.10;;;15.00;99.90;;;;;;4908894;29;20832;-70
2024/03/15 14:30:46;;;;;;;6.53;6.00;;;15.00;99.90;;;;;;4908206;29;21022;-70
2024/03/15 14:33:13;;;;;;;5.47;4.93;;;15.10;99.90;;;;;;4908555;29;20506;-70
2024/03/15 14:35:41;;;;;;;14.73;5.80;;;15.10;99.90;;;;;;4906242;29;20475;-69
2024/03/15 14:38:13;;;;;;;6.57;5.87;;;15.00;99.90;;;;;;4909802;29;20558;-70
2024/03/15 14:40:40;;;;;;;6.00;5.40;;;15.00;99.90;;;;;;4908125;29;21043;-70
2024/03/15 14:43:10;;;;;;;6.17;5.60;;;15.00;99.90;;;;;;4901162;29;20574;-70
2024/03/15 14:45:49;;;;;;;6.07;5.47;;;15.10;99.90;;;;;;4877783;29;20478;-69
2024/03/15 14:48:16;;;;;;;5.90;5.50;;;15.30;99.90;;;;;;4880702;29;20472;-69
2024/03/15 14:50:44;;;;;;;7.53;6.03;;;15.30;99.90;;;;;;4892035;29;20494;-70
2024/03/15 14:53:11;;;;;;;6.13;5.63;;;15.40;99.90;;;;;;4893663;29;20475;-69
2024/03/15 14:55:42;;;;;;;4.73;4.33;;;15.50;99.90;;;;;;4908035;29;20497;-68
2024/03/15 14:58:25;;;;;;;6.20;5.60;;;15.70;99.90;;;;;;4886821;29;20836;-68
2024/03/15 15:00:56;;;;;;;6.23;5.63;;;15.70;99.90;;;;;;4892734;29;21073;-69
2024/03/15 15:03:31;;;;;;;5.00;4.47;;;15.70;99.90;;;;;;4905534;29;20579;-69
2024/03/15 15:06:03;;;;;;;5.60;5.10;;;15.70;99.90;;;;;;4876731;29;20847;-69
2024/03/15 15:08:33;;;;;;;7.57;5.43;;;15.60;99.90;;;;;;4889674;29;20888;-69
2024/03/15 15:11:03;;;;;;;6.73;6.33;;;15.50;99.90;;;;;;4892960;29;20487;-69
2024/03/15 15:13:34;;;;;;;5.63;5.13;;;15.50;99.90;;;;;;4907940;29;20474;-69
2024/03/15 15:16:01;;;;;;;5.80;5.30;;;15.60;99.90;;;;;;4907851;29;20614;-69
2024/03/15 15:18:29;;;;;;;5.53;5.10;;;15.70;99.90;;;;;;4907735;29;20967;-69
2024/03/15 15:21:01;;;;;;;5.03;4.73;;;15.70;99.90;;;;;;4892241;29;21014;-69
2024/03/15 15:23:32;;;;;;;7.80;4.80;;;15.80;99.90;;;;;;4900951;29;20527;-69
2024/03/15 15:26:04;;;;;;;4.70;4.40;;;15.90;99.90;;;;;;4876285;29;20562;-70
2024/03/15 15:28:31;;;;;;;5.00;4.60;;;15.90;99.90;;;;;;4901701;29;20463;-69
2024/03/15 15:30:59;;;;;;;4.20;4.00;;;15.90;99.90;;;;;;4908337;29;20498;-69
2024/03/15 15:33:30;;;;;;;4.03;3.67;;;15.90;99.90;;;;;;4906510;29;20463;-70
2024/03/15 15:35:59;;;;;;;4.50;4.10;;;15.80;99.90;;;;;;4909398;29;20471;-70
2024/03/15 15:38:27;;;;;;;5.67;5.17;;;15.70;99.90;;;;;;4910157;29;20472;-69
2024/03/15 15:40:56;;;;;;;5.53;4.50;;;15.70;99.90;;;;;;4880814;29;20494;-69
2024/03/15 15:43:23;;;;;;;4.43;4.23;;;15.70;99.90;;;;;;4896209;29;20590;-69
2024/03/15 15:45:50;;;;;;;5.07;4.67;;;15.60;99.90;;;;;;4878437;29;20471;-69
2024/03/15 15:48:25;;;;;;;4.53;4.20;;;15.60;99.90;;;;;;4892044;29;20463;-69
2024/03/15 15:50:55;;;;;;;6.57;4.40;;;15.50;99.90;;;;;;4910105;29;22010;-69
2024/03/15 15:53:26;;;;;;;6.67;3.83;;;15.40;99.90;;;;;;4896696;29;20935;-69
2024/03/15 15:55:53;;;;;;;4.77;4.37;;;15.30;99.90;;;;;;4893537;29;20534;-69
2024/03/15 15:58:20;;;;;;;5.43;4.50;;;15.30;99.90;;;;;;4906902;29;20475;-69
2024/03/15 16:00:53;;;;;;;4.43;4.00;;;15.10;99.90;;;;;;4894828;29;20498;-69
2024/03/15 16:03:21;;;;;;;5.47;4.40;;;15.00;99.90;;;;;;4873040;29;20570;-70
2024/03/15 16:05:49;;;;;;;4.30;4.00;;;14.80;99.90;;;;;;4909311;29;20467;-70
2024/03/15 16:08:21;;;;;;;6.37;4.03;;;14.70;99.90;;;;;;4895410;29;20497;-69
2024/03/15 16:10:52;;;;;;;4.20;3.90;;;14.60;99.90;;;;;;4911233;29;20479;-70
2024/03/15 16:13:22;;;;;;;3.70;3.50;;;14.50;99.90;;;;;;4896103;29;20535;-70
2024/03/15 16:15:49;;;;;;;4.10;3.90;;;14.40;99.90;;;;;;4909593;29;20562;-69
2024/03/15 16:18:19;;;;;;;4.33;3.60;;;14.30;99.90;;;;;;4909681;29;20463;-69
2024/03/15 16:20:46;;;;;;;5.57;3.33;;;14.20;99.90;;;;;;4879251;29;20571;-70
2024/03/15 16:23:13;;;;;;;3.23;3.03;;;14.20;99.90;;;;;;4911842;29;20483;-71
2024/03/15 16:25:40;;;;;;;2.90;2.70;;;14.10;99.90;;;;;;4911039;29;20839;-72
2024/03/15 16:28:08;;;;;;;3.17;2.97;;;14.10;99.90;;;;;;4879860;29;20982;-69
2024/03/15 16:30:35;;;;;;;3.53;3.27;;;13.90;99.90;;;;;;4880763;29;20486;-70
2024/03/15 16:33:03;;;;;;;3.47;3.27;;;13.90;99.90;;;;;;4879496;29;20476;-71
2024/03/15 16:35:30;;;;;;;3.23;3.00;;;13.90;99.90;;;;;;4908567;29;20583;-72
2024/03/15 16:37:57;;;;;;;2.80;2.70;;;13.80;99.90;;;;;;4896511;29;20843;-72
2024/03/15 16:40:24;;;;;;;2.77;2.60;;;13.70;99.90;;;;;;4911364;29;20480;-71
2024/03/15 16:42:52;;;;;;;3.40;3.10;;;13.70;99.90;;;;;;4910423;29;20638;-71
2024/03/15 16:45:19;;;;;;;3.23;3.03;;;13.60;99.90;;;;;;4909453;29;20463;-71
2024/03/15 16:47:46;;;;;;;3.10;3.00;;;13.60;99.90;;;;;;4910239;29;20482;-71
2024/03/15 16:50:13;;;;;;;3.87;3.60;;;13.60;99.90;;;;;;4890219;29;20483;-71
2024/03/15 16:52:39;;;;;;;3.90;3.20;;;13.50;99.90;;;;;;4905952;29;20877;-71
2024/03/15 16:55:11;;;;;;;3.53;3.00;;;13.50;99.90;;;;;;4893619;29;21291;-71
2024/03/15 16:57:38;;;;;;;4.10;3.90;;;13.40;99.90;;;;;;4909084;29;20502;-72
2024/03/15 17:00:14;;;;;;;3.80;3.07;;;13.40;99.90;;;;;;4879848;29;20471;-71
2024/03/15 17:02:41;;;;;;;2.63;2.53;;;13.40;99.90;;;;;;4909211;29;20501;-72
2024/03/15 17:05:08;;;;;;;3.43;3.03;;;13.40;99.90;;;;;;4877992;29;20975;-72
2024/03/15 17:07:35;;;;;;;3.50;3.20;;;13.40;99.90;;;;;;4910836;29;20471;-72
2024/03/15 17:10:05;;;;;;;4.67;3.87;;;13.30;99.90;;;;;;4879355;29;20464;-71
2024/03/15 17:12:31;;;;;;;3.10;2.90;;;13.30;99.90;;;;;;4911161;29;20475;-71
2024/03/15 17:14:59;;;;;;;4.30;3.43;;;13.30;99.90;;;;;;4905971;29;20472;-72
2024/03/15 17:17:25;;;;;;;4.10;3.57;;;13.30;99.90;;;;;;4911348;29;20479;-71
2024/03/15 17:19:52;;;;;;;3.53;3.10;;;13.30;99.90;;;;;;4911175;29;20463;-71
2024/03/15 17:22:19;;;;;;;3.50;3.23;;;13.30;99.90;;;;;;4908649;29;20491;-72
2024/03/15 17:24:46;;;;;;;3.67;2.80;;;13.30;99.90;;;;;;4875612;29;20476;-72
2024/03/15 17:27:13;;;;;;;3.30;3.00;;;13.30;99.90;;;;;;4879332;29;20471;-71
2024/03/15 17:29:40;;;;;;;3.80;2.63;;;13.30;99.90;;;;;;4910070;29;20479;-72
2024/03/15 17:32:07;;;;;;;3.60;3.40;;;13.30;99.90;;;;;;4879075;29;20868;-71
2024/03/15 17:34:34;;;;;;;2.63;2.50;;;13.30;99.90;;;;;;4894852;29;20844;-72
2024/03/15 17:37:00;;;;;;;3.70;3.17;;;13.30;99.90;;;;;;4894150;29;20522;-71
2024/03/15 17:39:28;;;;;;;2.73;2.63;;;13.30;99.90;;;;;;4908222;29;20490;-71
2024/03/15 17:41:54;;;;;;;3.70;3.50;;;13.30;99.90;;;;;;4893746;29;20499;-71
2024/03/15 17:44:21;;;;;;;3.23;2.73;;;13.30;99.90;;;;;;4909730;29;20479;-71
2024/03/15 17:46:48;;;;;;;3.87;3.50;;;13.30;99.90;;;;;;4909303;29;20839;-71
2024/03/15 17:49:15;;;;;;;3.37;3.17;;;13.30;99.90;;;;;;4873726;29;20819;-71
2024/03/15 17:51:42;;;;;;;3.77;3.33;;;13.30;99.90;;;;;;4876479;29;20491;-71
2024/03/15 17:54:09;;;;;;;3.60;3.20;;;13.30;99.90;;;;;;4877207;29;20895;-71
2024/03/15 17:56:36;;;;;;;2.93;2.80;;;13.20;99.90;;;;;;4909406;29;20472;-70
2024/03/15 17:59:03;;;;;;;2.10;2.00;;;13.20;99.90;;;;;;4876534;29;20475;-70
2024/03/15 18:01:29;;;;;;;2.83;2.73;;;13.20;99.90;;;;;;4910019;29;20684;-71
2024/03/15 18:03:57;;;;;;;3.10;2.90;;;13.20;99.90;;;;;;4907165;29;21996;-70
2024/03/15 18:06:24;;;;;;;2.70;2.60;;;13.20;99.90;;;;;;4893975;29;20470;-71
2024/03/15 18:08:50;;;;;;;3.60;3.30;;;13.20;99.90;;;;;;4893429;29;20472;-71
2024/03/15 18:11:17;;;;;;;3.90;2.57;;;13.10;99.90;;;;;;4887622;29;20479;-71
2024/03/15 18:13:44;;;;;;;2.17;2.07;;;13.10;99.90;;;;;;4908801;29;20470;-70
2024/03/15 18:16:11;;;;;;;2.53;2.43;;;13.00;99.90;;;;;;4892986;29;20922;-70
2024/03/15 18:18:38;;;;;;;3.53;2.40;;;13.00;99.90;;;;;;4909198;29;20481;-71